sensor_id;sensor_type;location;lat;lon;timestamp;P1;durP1;ratioP1;P2;durP2;ratioP2
28335;SDS011;15592;53.656;7.276;2024-03-02T00:00:15;28.75;;;17.35;;
28335;SDS011;15592;53.656;7.276;2024-03-02T00:02:44;28.23;;;16.77;;
28335;SDS011;15592;53.656;7.276;2024-03-02T00:05:11;30.00;;;18.33;;
28335;SDS011;15592;53.656;7.276;2024-03-02T00:07:40;26.80;;;16.73;;
28335;SDS011;15592;53.656;7.276;2024-03-02T00:10:10;28.60;;;17.95;;
28335;SDS011;15592;53.656;7.276;2024-03-02T00:12:37;28.52;;;16.88;;
28335;SDS011;15592;53.656;7.276;2024-03-02T00:15:06;24.25;;;15.40;;
28335;SDS011;15592;53.656;7.276;2024-03-02T00:17:53;25.92;;;15.95;;
28335;SDS011;15592;53.656;7.276;2024-03-02T00:20:21;24.10;;;15.38;;
28335;SDS011;15592;53.656;7.276;2024-03-02T00:22:47;25.90;;;16.17;;
28335;SDS011;15592;53.656;7.276;2024-03-02T00:25:13;24.45;;;14.18;;
28335;SDS011;15592;53.656;7.276;2024-03-02T00:27:39;23.23;;;14.75;;
28335;SDS011;15592;53.656;7.276;2024-03-02T00:30:50;25.58;;;14.63;;
28335;SDS011;15592;53.656;7.276;2024-03-02T00:33:09;24.42;;;14.60;;
28335;SDS011;15592;53.656;7.276;2024-03-02T00:35:35;24.10;;;14.82;;
28335;SDS011;15592;53.656;7.276;2024-03-02T00:38:04;23.42;;;14.43;;
28335;SDS011;15592;53.656;7.276;2024-03-02T00:40:31;26.23;;;15.55;;
28335;SDS011;15592;53.656;7.276;2024-03-02T00:42:57;27.33;;;15.23;;
28335;SDS011;15592;53.656;7.276;2024-03-02T00:45:23;23.77;;;14.15;;
28335;SDS011;15592;53.656;7.276;2024-03-02T00:47:49;26.88;;;16.25;;
28335;SDS011;15592;53.656;7.276;2024-03-02T00:50:15;24.92;;;15.07;;
28335;SDS011;15592;53.656;7.276;2024-03-02T00:52:41;28.77;;;15.98;;
28335;SDS011;15592;53.656;7.276;2024-03-02T00:55:07;25.55;;;15.05;;
28335;SDS011;15592;53.656;7.276;2024-03-02T00:57:33;24.98;;;14.30;;
28335;SDS011;15592;53.656;7.276;2024-03-02T01:00:00;24.90;;;14.77;;
28335;SDS011;15592;53.656;7.276;2024-03-02T01:02:25;21.42;;;13.90;;
28335;SDS011;15592;53.656;7.276;2024-03-02T01:04:51;24.88;;;14.48;;
28335;SDS011;15592;53.656;7.276;2024-03-02T01:07:17;24.45;;;13.35;;
28335;SDS011;15592;53.656;7.276;2024-03-02T01:09:43;22.60;;;13.50;;
28335;SDS011;15592;53.656;7.276;2024-03-02T01:12:08;20.48;;;12.63;;
28335;SDS011;15592;53.656;7.276;2024-03-02T01:14:34;23.42;;;13.40;;
28335;SDS011;15592;53.656;7.276;2024-03-02T01:17:00;21.58;;;12.93;;
28335;SDS011;15592;53.656;7.276;2024-03-02T01:19:28;21.60;;;13.18;;
28335;SDS011;15592;53.656;7.276;2024-03-02T01:21:54;21.15;;;12.85;;
28335;SDS011;15592;53.656;7.276;2024-03-02T01:24:19;20.88;;;12.82;;
28335;SDS011;15592;53.656;7.276;2024-03-02T01:26:45;20.45;;;11.98;;
28335;SDS011;15592;53.656;7.276;2024-03-02T01:29:10;20.52;;;12.85;;
28335;SDS011;15592;53.656;7.276;2024-03-02T01:31:36;18.98;;;12.30;;
28335;SDS011;15592;53.656;7.276;2024-03-02T01:34:02;20.88;;;12.38;;
28335;SDS011;15592;53.656;7.276;2024-03-02T01:36:27;20.00;;;12.60;;
28335;SDS011;15592;53.656;7.276;2024-03-02T01:38:53;19.63;;;12.63;;
28335;SDS011;15592;53.656;7.276;2024-03-02T01:41:18;19.77;;;12.05;;
28335;SDS011;15592;53.656;7.276;2024-03-02T01:43:44;19.77;;;11.93;;
28335;SDS011;15592;53.656;7.276;2024-03-02T01:46:10;19.95;;;12.65;;
28335;SDS011;15592;53.656;7.276;2024-03-02T01:48:35;20.83;;;10.77;;
28335;SDS011;15592;53.656;7.276;2024-03-02T01:51:01;19.05;;;11.52;;
28335;SDS011;15592;53.656;7.276;2024-03-02T01:53:26;17.23;;;10.93;;
28335;SDS011;15592;53.656;7.276;2024-03-02T01:55:53;17.00;;;10.90;;
28335;SDS011;15592;53.656;7.276;2024-03-02T01:58:18;17.85;;;10.90;;
28335;SDS011;15592;53.656;7.276;2024-03-02T02:00:44;15.93;;;10.38;;
28335;SDS011;15592;53.656;7.276;2024-03-02T02:03:10;17.38;;;11.45;;
28335;SDS011;15592;53.656;7.276;2024-03-02T02:05:35;15.77;;;9.80;;
28335;SDS011;15592;53.656;7.276;2024-03-02T02:08:01;17.92;;;10.07;;
28335;SDS011;15592;53.656;7.276;2024-03-02T02:10:27;15.68;;;10.65;;
28335;SDS011;15592;53.656;7.276;2024-03-02T02:12:52;15.13;;;9.55;;
28335;SDS011;15592;53.656;7.276;2024-03-02T02:17:46;14.38;;;9.85;;
28335;SDS011;15592;53.656;7.276;2024-03-02T02:20:12;15.68;;;10.27;;
28335;SDS011;15592;53.656;7.276;2024-03-02T02:22:38;15.60;;;9.65;;
28335;SDS011;15592;53.656;7.276;2024-03-02T02:25:04;18.02;;;10.82;;
28335;SDS011;15592;53.656;7.276;2024-03-02T02:27:30;16.58;;;10.13;;
28335;SDS011;15592;53.656;7.276;2024-03-02T02:29:56;16.35;;;10.32;;
28335;SDS011;15592;53.656;7.276;2024-03-02T02:32:21;15.82;;;10.05;;
28335;SDS011;15592;53.656;7.276;2024-03-02T02:34:51;15.88;;;9.45;;
28335;SDS011;15592;53.656;7.276;2024-03-02T02:37:17;15.45;;;9.40;;
28335;SDS011;15592;53.656;7.276;2024-03-02T02:39:43;17.42;;;10.10;;
28335;SDS011;15592;53.656;7.276;2024-03-02T02:42:09;17.17;;;10.35;;
28335;SDS011;15592;53.656;7.276;2024-03-02T02:44:34;18.00;;;9.25;;
28335;SDS011;15592;53.656;7.276;2024-03-02T02:47:00;15.60;;;9.80;;
28335;SDS011;15592;53.656;7.276;2024-03-02T02:49:26;14.98;;;9.57;;
28335;SDS011;15592;53.656;7.276;2024-03-02T02:51:51;15.07;;;9.52;;
28335;SDS011;15592;53.656;7.276;2024-03-02T02:54:17;16.52;;;9.32;;
28335;SDS011;15592;53.656;7.276;2024-03-02T02:56:43;14.93;;;9.95;;
28335;SDS011;15592;53.656;7.276;2024-03-02T02:59:08;13.95;;;9.18;;
28335;SDS011;15592;53.656;7.276;2024-03-02T03:01:34;14.52;;;9.52;;
28335;SDS011;15592;53.656;7.276;2024-03-02T03:03:59;14.65;;;9.35;;
28335;SDS011;15592;53.656;7.276;2024-03-02T03:06:25;13.65;;;8.63;;
28335;SDS011;15592;53.656;7.276;2024-03-02T03:08:50;13.63;;;8.38;;
28335;SDS011;15592;53.656;7.276;2024-03-02T03:11:16;12.48;;;8.55;;
28335;SDS011;15592;53.656;7.276;2024-03-02T03:13:41;13.10;;;8.23;;
28335;SDS011;15592;53.656;7.276;2024-03-02T03:16:07;12.68;;;8.38;;
28335;SDS011;15592;53.656;7.276;2024-03-02T03:18:33;13.10;;;8.40;;
28335;SDS011;15592;53.656;7.276;2024-03-02T03:20:58;13.63;;;8.23;;
28335;SDS011;15592;53.656;7.276;2024-03-02T03:23:24;12.52;;;7.85;;
28335;SDS011;15592;53.656;7.276;2024-03-02T03:25:50;11.43;;;7.30;;
28335;SDS011;15592;53.656;7.276;2024-03-02T03:28:16;11.68;;;7.72;;
28335;SDS011;15592;53.656;7.276;2024-03-02T03:30:42;12.00;;;7.65;;
28335;SDS011;15592;53.656;7.276;2024-03-02T03:33:08;10.40;;;7.20;;
28335;SDS011;15592;53.656;7.276;2024-03-02T03:35:33;11.25;;;7.10;;
28335;SDS011;15592;53.656;7.276;2024-03-02T03:37:59;12.20;;;7.57;;
28335;SDS011;15592;53.656;7.276;2024-03-02T03:40:26;10.75;;;7.20;;
28335;SDS011;15592;53.656;7.276;2024-03-02T03:42:52;11.10;;;7.03;;
28335;SDS011;15592;53.656;7.276;2024-03-02T03:45:18;11.38;;;7.38;;
28335;SDS011;15592;53.656;7.276;2024-03-02T03:47:43;9.57;;;6.72;;
28335;SDS011;15592;53.656;7.276;2024-03-02T03:50:09;12.60;;;6.85;;
28335;SDS011;15592;53.656;7.276;2024-03-02T03:52:35;10.55;;;6.72;;
28335;SDS011;15592;53.656;7.276;2024-03-02T03:55:01;11.35;;;7.25;;
28335;SDS011;15592;53.656;7.276;2024-03-02T03:57:26;9.48;;;6.88;;
28335;SDS011;15592;53.656;7.276;2024-03-02T03:59:52;10.15;;;6.95;;
28335;SDS011;15592;53.656;7.276;2024-03-02T04:02:18;9.70;;;6.25;;
28335;SDS011;15592;53.656;7.276;2024-03-02T04:04:44;10.57;;;6.75;;
28335;SDS011;15592;53.656;7.276;2024-03-02T04:07:10;12.40;;;6.82;;
28335;SDS011;15592;53.656;7.276;2024-03-02T04:09:35;10.05;;;5.78;;
28335;SDS011;15592;53.656;7.276;2024-03-02T04:12:01;9.05;;;6.38;;
28335;SDS011;15592;53.656;7.276;2024-03-02T04:14:27;10.52;;;6.60;;
28335;SDS011;15592;53.656;7.276;2024-03-02T04:16:52;12.70;;;6.97;;
28335;SDS011;15592;53.656;7.276;2024-03-02T04:19:18;10.45;;;6.47;;
28335;SDS011;15592;53.656;7.276;2024-03-02T04:21:43;9.25;;;6.25;;
28335;SDS011;15592;53.656;7.276;2024-03-02T04:24:09;10.80;;;6.65;;
28335;SDS011;15592;53.656;7.276;2024-03-02T04:26:34;11.05;;;7.30;;
28335;SDS011;15592;53.656;7.276;2024-03-02T04:29:00;9.38;;;6.93;;
28335;SDS011;15592;53.656;7.276;2024-03-02T04:31:26;12.70;;;7.05;;
28335;SDS011;15592;53.656;7.276;2024-03-02T04:33:52;10.48;;;6.85;;
28335;SDS011;15592;53.656;7.276;2024-03-02T04:36:19;9.93;;;6.75;;
28335;SDS011;15592;53.656;7.276;2024-03-02T04:38:44;10.00;;;6.85;;
28335;SDS011;15592;53.656;7.276;2024-03-02T04:41:10;11.20;;;7.47;;
28335;SDS011;15592;53.656;7.276;2024-03-02T04:43:35;12.25;;;7.10;;
28335;SDS011;15592;53.656;7.276;2024-03-02T04:46:01;12.45;;;7.60;;
28335;SDS011;15592;53.656;7.276;2024-03-02T04:48:27;12.75;;;7.40;;
28335;SDS011;15592;53.656;7.276;2024-03-02T04:50:52;9.50;;;6.40;;
28335;SDS011;15592;53.656;7.276;2024-03-02T04:53:18;13.13;;;7.05;;
28335;SDS011;15592;53.656;7.276;2024-03-02T04:55:44;9.88;;;7.00;;
28335;SDS011;15592;53.656;7.276;2024-03-02T04:58:19;9.77;;;6.40;;
28335;SDS011;15592;53.656;7.276;2024-03-02T05:00:44;10.90;;;6.78;;
28335;SDS011;15592;53.656;7.276;2024-03-02T05:03:11;10.98;;;6.97;;
28335;SDS011;15592;53.656;7.276;2024-03-02T05:05:38;10.98;;;7.55;;
28335;SDS011;15592;53.656;7.276;2024-03-02T05:08:03;14.45;;;8.35;;
28335;SDS011;15592;53.656;7.276;2024-03-02T05:10:29;10.38;;;6.90;;
28335;SDS011;15592;53.656;7.276;2024-03-02T05:12:55;12.50;;;7.57;;
28335;SDS011;15592;53.656;7.276;2024-03-02T05:15:22;12.57;;;7.40;;
28335;SDS011;15592;53.656;7.276;2024-03-02T05:17:47;10.60;;;7.25;;
28335;SDS011;15592;53.656;7.276;2024-03-02T05:20:13;13.38;;;7.50;;
28335;SDS011;15592;53.656;7.276;2024-03-02T05:22:38;11.77;;;7.55;;
28335;SDS011;15592;53.656;7.276;2024-03-02T05:25:05;9.30;;;6.57;;
28335;SDS011;15592;53.656;7.276;2024-03-02T05:27:31;11.55;;;7.05;;
28335;SDS011;15592;53.656;7.276;2024-03-02T05:29:57;10.77;;;7.55;;
28335;SDS011;15592;53.656;7.276;2024-03-02T05:32:23;12.25;;;7.40;;
28335;SDS011;15592;53.656;7.276;2024-03-02T05:34:49;13.40;;;7.45;;
28335;SDS011;15592;53.656;7.276;2024-03-02T05:37:15;12.40;;;7.45;;
28335;SDS011;15592;53.656;7.276;2024-03-02T05:39:41;15.07;;;7.93;;
28335;SDS011;15592;53.656;7.276;2024-03-02T05:42:08;11.98;;;7.85;;
28335;SDS011;15592;53.656;7.276;2024-03-02T05:44:34;16.40;;;8.57;;
28335;SDS011;15592;53.656;7.276;2024-03-02T05:47:03;12.40;;;8.32;;
28335;SDS011;15592;53.656;7.276;2024-03-02T05:49:29;12.63;;;8.13;;
28335;SDS011;15592;53.656;7.276;2024-03-02T05:51:55;14.40;;;8.38;;
28335;SDS011;15592;53.656;7.276;2024-03-02T05:54:20;14.45;;;8.63;;
28335;SDS011;15592;53.656;7.276;2024-03-02T05:56:46;13.05;;;8.63;;
28335;SDS011;15592;53.656;7.276;2024-03-02T05:59:11;16.55;;;8.77;;
28335;SDS011;15592;53.656;7.276;2024-03-02T06:01:38;13.40;;;9.15;;
28335;SDS011;15592;53.656;7.276;2024-03-02T06:04:11;12.25;;;8.63;;
28335;SDS011;15592;53.656;7.276;2024-03-02T06:06:37;14.63;;;8.82;;
28335;SDS011;15592;53.656;7.276;2024-03-02T06:09:03;12.48;;;8.50;;
28335;SDS011;15592;53.656;7.276;2024-03-02T06:11:38;12.90;;;8.48;;
28335;SDS011;15592;53.656;7.276;2024-03-02T06:14:05;15.63;;;9.48;;
28335;SDS011;15592;53.656;7.276;2024-03-02T06:16:31;14.90;;;9.70;;
28335;SDS011;15592;53.656;7.276;2024-03-02T06:18:57;15.20;;;9.13;;
28335;SDS011;15592;53.656;7.276;2024-03-02T06:21:23;15.60;;;9.63;;
28335;SDS011;15592;53.656;7.276;2024-03-02T06:23:49;15.88;;;9.55;;
28335;SDS011;15592;53.656;7.276;2024-03-02T06:26:15;14.38;;;9.02;;
28335;SDS011;15592;53.656;7.276;2024-03-02T06:28:40;15.77;;;9.85;;
28335;SDS011;15592;53.656;7.276;2024-03-02T06:31:06;15.15;;;8.57;;
28335;SDS011;15592;53.656;7.276;2024-03-02T06:33:32;15.32;;;9.55;;
28335;SDS011;15592;53.656;7.276;2024-03-02T06:35:57;12.00;;;8.52;;
28335;SDS011;15592;53.656;7.276;2024-03-02T06:38:23;14.65;;;9.75;;
28335;SDS011;15592;53.656;7.276;2024-03-02T06:40:49;16.75;;;9.82;;
28335;SDS011;15592;53.656;7.276;2024-03-02T06:43:14;15.48;;;9.32;;
28335;SDS011;15592;53.656;7.276;2024-03-02T06:45:40;21.45;;;10.15;;
28335;SDS011;15592;53.656;7.276;2024-03-02T06:48:06;17.63;;;9.77;;
28335;SDS011;15592;53.656;7.276;2024-03-02T06:50:32;18.08;;;11.07;;
28335;SDS011;15592;53.656;7.276;2024-03-02T06:52:58;18.63;;;10.90;;
28335;SDS011;15592;53.656;7.276;2024-03-02T06:55:23;17.25;;;11.35;;
28335;SDS011;15592;53.656;7.276;2024-03-02T06:57:49;18.88;;;11.50;;
28335;SDS011;15592;53.656;7.276;2024-03-02T07:00:15;18.65;;;11.57;;
28335;SDS011;15592;53.656;7.276;2024-03-02T07:02:43;20.75;;;11.52;;
28335;SDS011;15592;53.656;7.276;2024-03-02T07:05:09;21.45;;;12.52;;
28335;SDS011;15592;53.656;7.276;2024-03-02T07:07:35;19.48;;;12.13;;
28335;SDS011;15592;53.656;7.276;2024-03-02T07:10:02;21.25;;;12.25;;
28335;SDS011;15592;53.656;7.276;2024-03-02T07:12:30;19.20;;;12.23;;
28335;SDS011;15592;53.656;7.276;2024-03-02T07:14:56;19.15;;;11.20;;
28335;SDS011;15592;53.656;7.276;2024-03-02T07:17:28;18.65;;;11.40;;
28335;SDS011;15592;53.656;7.276;2024-03-02T07:19:53;20.75;;;12.25;;
28335;SDS011;15592;53.656;7.276;2024-03-02T07:22:19;22.45;;;11.70;;
28335;SDS011;15592;53.656;7.276;2024-03-02T07:24:45;20.48;;;11.55;;
28335;SDS011;15592;53.656;7.276;2024-03-02T07:27:11;19.30;;;12.13;;
28335;SDS011;15592;53.656;7.276;2024-03-02T07:29:37;19.67;;;12.00;;
28335;SDS011;15592;53.656;7.276;2024-03-02T07:32:05;18.88;;;11.88;;
28335;SDS011;15592;53.656;7.276;2024-03-02T07:34:31;21.63;;;12.70;;
28335;SDS011;15592;53.656;7.276;2024-03-02T07:36:57;18.45;;;12.32;;
28335;SDS011;15592;53.656;7.276;2024-03-02T07:39:23;18.42;;;11.52;;
28335;SDS011;15592;53.656;7.276;2024-03-02T07:41:49;19.30;;;11.77;;
28335;SDS011;15592;53.656;7.276;2024-03-02T07:44:15;20.05;;;12.25;;
28335;SDS011;15592;53.656;7.276;2024-03-02T07:46:44;19.38;;;11.63;;
28335;SDS011;15592;53.656;7.276;2024-03-02T07:49:15;17.90;;;11.60;;
28335;SDS011;15592;53.656;7.276;2024-03-02T07:51:41;20.58;;;11.90;;
28335;SDS011;15592;53.656;7.276;2024-03-02T07:54:07;16.55;;;10.45;;
28335;SDS011;15592;53.656;7.276;2024-03-02T07:56:32;17.23;;;11.13;;
28335;SDS011;15592;53.656;7.276;2024-03-02T07:58:58;17.02;;;11.18;;
28335;SDS011;15592;53.656;7.276;2024-03-02T08:01:29;18.85;;;10.90;;
28335;SDS011;15592;53.656;7.276;2024-03-02T08:03:55;18.10;;;11.33;;
28335;SDS011;15592;53.656;7.276;2024-03-02T08:06:25;17.52;;;10.75;;
28335;SDS011;15592;53.656;7.276;2024-03-02T08:08:59;16.95;;;10.40;;
28335;SDS011;15592;53.656;7.276;2024-03-02T08:11:26;16.77;;;10.00;;
28335;SDS011;15592;53.656;7.276;2024-03-02T08:16:22;15.60;;;9.50;;
28335;SDS011;15592;53.656;7.276;2024-03-02T08:18:48;21.08;;;10.05;;
28335;SDS011;15592;53.656;7.276;2024-03-02T08:21:14;14.02;;;9.20;;
28335;SDS011;15592;53.656;7.276;2024-03-02T08:23:41;13.38;;;9.38;;
28335;SDS011;15592;53.656;7.276;2024-03-02T08:26:07;15.13;;;8.85;;
28335;SDS011;15592;53.656;7.276;2024-03-02T08:28:33;13.73;;;8.85;;
28335;SDS011;15592;53.656;7.276;2024-03-02T08:30:59;13.00;;;8.60;;
28335;SDS011;15592;53.656;7.276;2024-03-02T08:33:25;14.20;;;8.88;;
28335;SDS011;15592;53.656;7.276;2024-03-02T08:35:50;15.45;;;9.48;;
28335;SDS011;15592;53.656;7.276;2024-03-02T08:38:16;15.23;;;9.85;;
28335;SDS011;15592;53.656;7.276;2024-03-02T08:40:42;13.88;;;9.40;;
28335;SDS011;15592;53.656;7.276;2024-03-02T08:43:08;14.02;;;8.73;;
28335;SDS011;15592;53.656;7.276;2024-03-02T08:45:34;11.88;;;8.80;;
28335;SDS011;15592;53.656;7.276;2024-03-02T08:47:59;13.48;;;9.48;;
28335;SDS011;15592;53.656;7.276;2024-03-02T08:50:25;14.27;;;9.25;;
28335;SDS011;15592;53.656;7.276;2024-03-02T08:52:51;14.88;;;9.77;;
28335;SDS011;15592;53.656;7.276;2024-03-02T08:55:19;11.40;;;8.18;;
28335;SDS011;15592;53.656;7.276;2024-03-02T08:57:45;12.80;;;8.07;;
28335;SDS011;15592;53.656;7.276;2024-03-02T09:00:11;13.43;;;8.27;;
28335;SDS011;15592;53.656;7.276;2024-03-02T09:02:37;12.95;;;7.60;;
28335;SDS011;15592;53.656;7.276;2024-03-02T09:05:03;12.93;;;7.90;;
28335;SDS011;15592;53.656;7.276;2024-03-02T09:07:30;14.65;;;8.77;;
28335;SDS011;15592;53.656;7.276;2024-03-02T09:09:55;10.32;;;7.47;;
28335;SDS011;15592;53.656;7.276;2024-03-02T09:12:21;10.35;;;7.18;;
28335;SDS011;15592;53.656;7.276;2024-03-02T09:14:47;13.50;;;7.93;;
28335;SDS011;15592;53.656;7.276;2024-03-02T09:17:13;12.90;;;8.38;;
28335;SDS011;15592;53.656;7.276;2024-03-02T09:19:39;12.35;;;8.30;;
28335;SDS011;15592;53.656;7.276;2024-03-02T09:22:05;9.90;;;6.95;;
28335;SDS011;15592;53.656;7.276;2024-03-02T09:24:31;10.75;;;7.50;;
28335;SDS011;15592;53.656;7.276;2024-03-02T09:26:58;12.60;;;8.20;;
28335;SDS011;15592;53.656;7.276;2024-03-02T09:29:24;9.40;;;7.15;;
28335;SDS011;15592;53.656;7.276;2024-03-02T09:31:49;11.10;;;7.22;;
28335;SDS011;15592;53.656;7.276;2024-03-02T09:34:16;12.00;;;7.32;;
28335;SDS011;15592;53.656;7.276;2024-03-02T09:36:42;10.35;;;6.93;;
28335;SDS011;15592;53.656;7.276;2024-03-02T09:39:08;10.00;;;7.22;;
28335;SDS011;15592;53.656;7.276;2024-03-02T09:41:37;10.10;;;6.50;;
28335;SDS011;15592;53.656;7.276;2024-03-02T09:44:03;9.55;;;6.35;;
28335;SDS011;15592;53.656;7.276;2024-03-02T09:46:30;10.15;;;6.85;;
28335;SDS011;15592;53.656;7.276;2024-03-02T09:48:56;10.75;;;6.30;;
28335;SDS011;15592;53.656;7.276;2024-03-02T09:51:22;8.77;;;5.97;;
28335;SDS011;15592;53.656;7.276;2024-03-02T09:53:48;9.75;;;6.40;;
28335;SDS011;15592;53.656;7.276;2024-03-02T09:56:15;11.02;;;6.65;;
28335;SDS011;15592;53.656;7.276;2024-03-02T09:58:41;9.32;;;5.93;;
28335;SDS011;15592;53.656;7.276;2024-03-02T10:01:07;10.02;;;6.00;;
28335;SDS011;15592;53.656;7.276;2024-03-02T10:03:35;9.07;;;5.80;;
28335;SDS011;15592;53.656;7.276;2024-03-02T10:08:53;7.93;;;5.55;;
28335;SDS011;15592;53.656;7.276;2024-03-02T10:11:29;10.43;;;6.03;;
28335;SDS011;15592;53.656;7.276;2024-03-02T10:14:04;7.25;;;5.32;;
28335;SDS011;15592;53.656;7.276;2024-03-02T10:16:36;8.13;;;5.07;;
28335;SDS011;15592;53.656;7.276;2024-03-02T10:21:51;5.68;;;4.28;;
28335;SDS011;15592;53.656;7.276;2024-03-02T10:24:18;6.63;;;4.00;;
28335;SDS011;15592;53.656;7.276;2024-03-02T10:26:45;5.63;;;3.42;;
28335;SDS011;15592;53.656;7.276;2024-03-02T10:29:11;6.03;;;4.00;;
28335;SDS011;15592;53.656;7.276;2024-03-02T10:31:37;6.57;;;3.63;;
28335;SDS011;15592;53.656;7.276;2024-03-02T10:34:04;5.22;;;3.80;;
28335;SDS011;15592;53.656;7.276;2024-03-02T10:36:31;5.70;;;4.00;;
28335;SDS011;15592;53.656;7.276;2024-03-02T10:38:59;4.05;;;3.10;;
28335;SDS011;15592;53.656;7.276;2024-03-02T10:41:35;6.70;;;3.40;;
28335;SDS011;15592;53.656;7.276;2024-03-02T10:44:03;4.47;;;3.20;;
28335;SDS011;15592;53.656;7.276;2024-03-02T10:46:33;4.80;;;3.00;;
28335;SDS011;15592;53.656;7.276;2024-03-02T10:49:01;6.07;;;3.40;;
28335;SDS011;15592;53.656;7.276;2024-03-02T10:51:29;4.40;;;2.80;;
28335;SDS011;15592;53.656;7.276;2024-03-02T10:54:01;4.13;;;2.83;;
28335;SDS011;15592;53.656;7.276;2024-03-02T10:56:32;4.22;;;2.58;;
28335;SDS011;15592;53.656;7.276;2024-03-02T11:12:03;4.90;;;2.65;;
28335;SDS011;15592;53.656;7.276;2024-03-02T11:14:53;4.90;;;2.30;;
28335;SDS011;15592;53.656;7.276;2024-03-02T11:17:21;5.95;;;1.80;;
28335;SDS011;15592;53.656;7.276;2024-03-02T11:19:47;5.50;;;2.20;;
28335;SDS011;15592;53.656;7.276;2024-03-02T11:22:36;2.83;;;2.22;;
28335;SDS011;15592;53.656;7.276;2024-03-02T11:25:03;5.53;;;2.20;;
28335;SDS011;15592;53.656;7.276;2024-03-02T11:33:04;3.08;;;2.03;;
28335;SDS011;15592;53.656;7.276;2024-03-02T11:35:36;3.33;;;2.03;;
28335;SDS011;15592;53.656;7.276;2024-03-02T11:38:11;4.70;;;2.47;;
28335;SDS011;15592;53.656;7.276;2024-03-02T11:40:38;3.47;;;2.17;;
28335;SDS011;15592;53.656;7.276;2024-03-02T11:43:05;6.03;;;2.63;;
28335;SDS011;15592;53.656;7.276;2024-03-02T11:45:33;3.40;;;2.45;;
28335;SDS011;15592;53.656;7.276;2024-03-02T11:47:59;4.55;;;2.70;;
28335;SDS011;15592;53.656;7.276;2024-03-02T11:53:06;5.00;;;2.83;;
28335;SDS011;15592;53.656;7.276;2024-03-02T11:55:37;6.45;;;2.78;;
28335;SDS011;15592;53.656;7.276;2024-03-02T11:58:04;5.43;;;3.33;;
28335;SDS011;15592;53.656;7.276;2024-03-02T12:00:31;4.78;;;3.00;;
28335;SDS011;15592;53.656;7.276;2024-03-02T12:03:03;7.80;;;3.92;;
28335;SDS011;15592;53.656;7.276;2024-03-02T12:05:33;7.70;;;3.75;;
28335;SDS011;15592;53.656;7.276;2024-03-02T12:08:00;6.80;;;3.58;;
28335;SDS011;15592;53.656;7.276;2024-03-02T12:10:30;8.93;;;4.07;;
28335;SDS011;15592;53.656;7.276;2024-03-02T12:13:00;5.63;;;3.72;;
28335;SDS011;15592;53.656;7.276;2024-03-02T12:15:27;5.88;;;3.78;;
28335;SDS011;15592;53.656;7.276;2024-03-02T12:17:55;6.03;;;3.95;;
28335;SDS011;15592;53.656;7.276;2024-03-02T12:20:22;5.95;;;3.75;;
28335;SDS011;15592;53.656;7.276;2024-03-02T12:22:50;6.18;;;4.10;;
28335;SDS011;15592;53.656;7.276;2024-03-02T12:25:17;5.70;;;4.07;;
28335;SDS011;15592;53.656;7.276;2024-03-02T12:27:44;6.60;;;4.68;;
28335;SDS011;15592;53.656;7.276;2024-03-02T12:30:11;7.57;;;4.43;;
28335;SDS011;15592;53.656;7.276;2024-03-02T12:32:38;7.90;;;4.63;;
28335;SDS011;15592;53.656;7.276;2024-03-02T12:35:08;5.90;;;4.50;;
28335;SDS011;15592;53.656;7.276;2024-03-02T12:37:42;6.45;;;4.45;;
28335;SDS011;15592;53.656;7.276;2024-03-02T12:40:09;10.10;;;4.80;;
28335;SDS011;15592;53.656;7.276;2024-03-02T12:42:36;5.65;;;4.43;;
28335;SDS011;15592;53.656;7.276;2024-03-02T12:45:02;9.02;;;5.13;;
28335;SDS011;15592;53.656;7.276;2024-03-02T12:47:28;8.75;;;5.05;;
28335;SDS011;15592;53.656;7.276;2024-03-02T12:49:54;7.10;;;4.80;;
28335;SDS011;15592;53.656;7.276;2024-03-02T12:52:21;10.13;;;5.10;;
28335;SDS011;15592;53.656;7.276;2024-03-02T12:54:47;8.80;;;5.25;;
28335;SDS011;15592;53.656;7.276;2024-03-02T12:57:19;6.53;;;4.45;;
28335;SDS011;15592;53.656;7.276;2024-03-02T12:59:45;6.80;;;4.82;;
28335;SDS011;15592;53.656;7.276;2024-03-02T13:02:16;7.57;;;5.75;;
28335;SDS011;15592;53.656;7.276;2024-03-02T13:04:43;6.90;;;5.13;;
28335;SDS011;15592;53.656;7.276;2024-03-02T13:07:09;7.93;;;5.85;;
28335;SDS011;15592;53.656;7.276;2024-03-02T13:09:38;7.22;;;5.75;;
28335;SDS011;15592;53.656;7.276;2024-03-02T13:12:04;7.45;;;6.20;;
28335;SDS011;15592;53.656;7.276;2024-03-02T13:17:16;6.78;;;5.35;;
28335;SDS011;15592;53.656;7.276;2024-03-02T13:19:43;9.85;;;6.50;;
28335;SDS011;15592;53.656;7.276;2024-03-02T13:22:19;8.65;;;5.35;;
28335;SDS011;15592;53.656;7.276;2024-03-02T13:24:45;8.02;;;5.25;;
28335;SDS011;15592;53.656;7.276;2024-03-02T13:27:10;5.32;;;4.82;;
28335;SDS011;15592;53.656;7.276;2024-03-02T13:29:36;7.40;;;4.88;;
28335;SDS011;15592;53.656;7.276;2024-03-02T13:32:02;7.70;;;4.97;;
28335;SDS011;15592;53.656;7.276;2024-03-02T13:34:28;6.22;;;4.45;;
28335;SDS011;15592;53.656;7.276;2024-03-02T13:36:53;5.95;;;4.82;;
28335;SDS011;15592;53.656;7.276;2024-03-02T13:39:19;8.73;;;5.40;;
28335;SDS011;15592;53.656;7.276;2024-03-02T13:41:45;5.28;;;4.10;;
28335;SDS011;15592;53.656;7.276;2024-03-02T13:44:17;4.63;;;3.90;;
28335;SDS011;15592;53.656;7.276;2024-03-02T13:46:43;6.55;;;4.05;;
28335;SDS011;15592;53.656;7.276;2024-03-02T13:49:10;7.05;;;3.80;;
28335;SDS011;15592;53.656;7.276;2024-03-02T13:51:36;5.32;;;4.00;;
28335;SDS011;15592;53.656;7.276;2024-03-02T13:54:02;4.25;;;3.55;;
28335;SDS011;15592;53.656;7.276;2024-03-02T13:56:29;5.53;;;3.53;;
28335;SDS011;15592;53.656;7.276;2024-03-02T13:58:55;5.00;;;3.50;;
28335;SDS011;15592;53.656;7.276;2024-03-02T14:01:21;5.85;;;3.70;;
28335;SDS011;15592;53.656;7.276;2024-03-02T14:03:47;5.28;;;2.95;;
28335;SDS011;15592;53.656;7.276;2024-03-02T14:06:13;6.32;;;2.45;;
28335;SDS011;15592;53.656;7.276;2024-03-02T14:08:39;6.07;;;1.92;;
28335;SDS011;15592;53.656;7.276;2024-03-02T14:11:05;4.13;;;2.05;;
28335;SDS011;15592;53.656;7.276;2024-03-02T14:13:31;2.95;;;2.30;;
28335;SDS011;15592;53.656;7.276;2024-03-02T14:15:57;4.30;;;2.00;;
28335;SDS011;15592;53.656;7.276;2024-03-02T14:18:23;2.70;;;1.80;;
28335;SDS011;15592;53.656;7.276;2024-03-02T14:20:49;5.43;;;2.35;;
28335;SDS011;15592;53.656;7.276;2024-03-02T14:23:17;3.25;;;2.20;;
28335;SDS011;15592;53.656;7.276;2024-03-02T14:25:45;3.50;;;2.42;;
28335;SDS011;15592;53.656;7.276;2024-03-02T14:28:11;7.35;;;3.25;;
28335;SDS011;15592;53.656;7.276;2024-03-02T14:30:37;4.45;;;2.92;;
28335;SDS011;15592;53.656;7.276;2024-03-02T14:33:04;5.32;;;3.42;;
28335;SDS011;15592;53.656;7.276;2024-03-02T14:35:30;3.67;;;2.80;;
28335;SDS011;15592;53.656;7.276;2024-03-02T14:37:57;4.75;;;2.67;;
28335;SDS011;15592;53.656;7.276;2024-03-02T14:40:23;5.35;;;3.13;;
28335;SDS011;15592;53.656;7.276;2024-03-02T14:42:52;4.38;;;3.22;;
28335;SDS011;15592;53.656;7.276;2024-03-02T14:45:18;5.45;;;3.10;;
28335;SDS011;15592;53.656;7.276;2024-03-02T14:47:44;5.82;;;3.20;;
28335;SDS011;15592;53.656;7.276;2024-03-02T14:50:10;5.20;;;3.45;;
28335;SDS011;15592;53.656;7.276;2024-03-02T14:52:36;5.03;;;3.72;;
28335;SDS011;15592;53.656;7.276;2024-03-02T14:55:02;4.43;;;3.35;;
28335;SDS011;15592;53.656;7.276;2024-03-02T14:57:29;5.05;;;3.80;;
28335;SDS011;15592;53.656;7.276;2024-03-02T14:59:55;6.93;;;4.28;;
28335;SDS011;15592;53.656;7.276;2024-03-02T15:02:21;6.65;;;3.80;;
28335;SDS011;15592;53.656;7.276;2024-03-02T15:04:47;5.18;;;3.83;;
28335;SDS011;15592;53.656;7.276;2024-03-02T15:07:13;4.85;;;3.83;;